Decoded Metar for UKHH (KHARKOV in UKRAINE) (IATA:N/A) | Meteo·Mobile Aviation Weather
aviador You're here:

UKHH Decoded Metar

KHARKOV in UKRAINE
Report Time2019-07-16 10:30:00
UTC Time2019-07-16 10:50:08
Flight Rules vfr VFR
Wind130° at 12 kt
W.Decomp.*RWY 07: 7.4 kt HW 9.5 kt RCW
Visibility9999 m
Phenomena:N/A
Clouds:N/A
Expected CloudBase > 4,800 ft AGL from Temp-Dew spread
CeilingNone
Temp23°C (ISA +9)
Dew Point11°C (47% RH)
AAT19.0°C
QNH1007 hPa
Density Alt1,936 ft
Elevation509 ft
Report Wrong Elevation
Raw Report
UKHH 161030Z 13006MPS 9999 FEW///CB 23/11 Q1007 R07/0///81
NOSIG=

Extra information for UKHH:More info

Metar Taf Metar & Taf Last 4 Metars F.Rules Stats Wind Profile Meteogram Temp Stats Airport Information Weather charts Add Link Nearby VenuesMetar ALERT Operation Metar Decoded Social comments